Terminal Aerodrome Forecast
Issued by NWS Sterling, VA

Current Version | Previous Version | Graphics & Text | Print | Product List | Glossary On
Versions: 1 2 3 4 5 6 7 8 9 10 11 12 13 14 15 16 17 18 19 20 21 22 23 24
000
FTUS41 KLWX 230500 RRA
TAFDCA
TAF
KDCA 230541Z 2306/2406 33007KT P6SM FEW150 BKN200
     FM231700 16004KT P6SM SCT200
     FM232100 18006KT P6SM SCT025 OVC080
     FM232300 17006KT 5SM -RASNPL SCT025 OVC060
     FM240300 10004KT 3SM -RASNPL BR BKN008 OVC020
     FM240500 07004KT 4SM -RA BR BKN008 OVC020=

USA.gov is the U.S. government's official web portal to all federal, state and local government web resources and services.